Time;durP1;ratioP1;P1;durP2;ratioP2;P2;SDS_P1;SDS_P2;PMS_P1;PMS_P2;Temp;Humidity;BMP_temperature;BMP_pressure;BME280_temperature;BME280_humidity;BME280_pressure;Samples;Min_cycle;Max_cycle;Signal;HPM_P1;HPM_P2
2021/01/06 00:01:02;;;;;;;7.57;5.97;;;2.40;99.90;;;;;;5072954;28;20292;-77
2021/01/06 00:03:29;;;;;;;5.87;4.43;;;2.40;99.90;;;;;;5075758;28;20298;-77
2021/01/06 00:05:58;;;;;;;6.63;4.43;;;2.30;99.90;;;;;;5074331;28;20205;-77
2021/01/06 00:08:25;;;;;;;7.13;4.80;;;2.30;99.90;;;;;;5078545;28;20263;-78
2021/01/06 00:10:53;;;;;;;8.53;5.33;;;2.40;99.90;;;;;;5075730;28;20201;-78
2021/01/06 00:13:20;;;;;;;6.40;4.43;;;2.40;99.90;;;;;;5074408;28;20202;-77
2021/01/06 00:15:47;;;;;;;5.23;4.20;;;2.40;99.90;;;;;;5072739;28;20280;-77
2021/01/06 00:18:14;;;;;;;5.10;4.17;;;2.40;99.90;;;;;;5070831;28;20308;-77
2021/01/06 00:20:42;;;;;;;7.17;4.07;;;2.40;99.90;;;;;;5072007;28;20621;-77
2021/01/06 00:23:08;;;;;;;6.40;4.23;;;2.40;99.90;;;;;;5074873;28;20215;-77
2021/01/06 00:25:37;;;;;;;6.13;4.20;;;2.40;99.90;;;;;;5071797;28;20268;-77
2021/01/06 00:28:05;;;;;;;7.50;4.80;;;2.30;99.90;;;;;;5073525;28;20193;-79
2021/01/06 00:30:33;;;;;;;7.67;5.00;;;2.30;99.90;;;;;;5073494;28;20725;-77
2021/01/06 00:33:03;;;;;;;5.87;4.33;;;2.30;99.90;;;;;;5073053;28;20209;-78
2021/01/06 00:35:30;;;;;;;6.43;4.43;;;2.30;99.90;;;;;;5064332;28;20216;-77
2021/01/06 00:37:57;;;;;;;5.37;4.30;;;2.30;99.90;;;;;;5074027;28;20236;-77
2021/01/06 00:40:28;;;;;;;6.60;5.17;;;2.30;99.90;;;;;;5072409;28;20205;-78
2021/01/06 00:42:56;;;;;;;6.13;4.37;;;2.30;99.90;;;;;;5071069;28;20565;-77
2021/01/06 00:45:22;;;;;;;8.43;4.90;;;2.30;99.90;;;;;;5075120;28;20213;-77
2021/01/06 00:47:48;;;;;;;6.03;4.47;;;2.30;99.90;;;;;;5074206;28;20663;-77
2021/01/06 00:50:15;;;;;;;6.53;4.70;;;2.30;99.90;;;;;;5074003;28;20347;-77
2021/01/06 00:52:42;;;;;;;6.50;4.47;;;2.30;99.90;;;;;;5073643;28;20193;-76
2021/01/06 00:55:10;;;;;;;6.70;4.80;;;2.20;99.90;;;;;;5073847;28;20296;-78
2021/01/06 00:57:36;;;;;;;6.63;4.73;;;2.30;99.90;;;;;;5073400;28;20248;-77
2021/01/06 01:00:05;;;;;;;6.40;4.60;;;2.30;99.90;;;;;;5073152;28;20300;-76
2021/01/06 01:02:32;;;;;;;6.70;4.50;;;2.30;99.90;;;;;;5072189;28;20235;-76
2021/01/06 01:04:58;;;;;;;6.57;4.70;;;2.30;99.90;;;;;;5071351;28;20275;-78
2021/01/06 01:07:26;;;;;;;6.77;4.17;;;2.30;99.90;;;;;;5072766;28;20296;-77
2021/01/06 01:09:53;;;;;;;6.37;4.17;;;2.30;99.90;;;;;;5070286;28;20197;-77
2021/01/06 01:12:22;;;;;;;8.17;5.00;;;2.30;99.90;;;;;;5072095;28;20240;-76
2021/01/06 01:14:49;;;;;;;6.07;4.33;;;2.30;99.90;;;;;;5072758;28;20245;-75
2021/01/06 01:17:17;;;;;;;8.10;5.03;;;2.30;99.90;;;;;;5072178;28;20205;-75
2021/01/06 01:19:44;;;;;;;6.30;4.23;;;2.40;99.90;;;;;;5070431;28;20244;-75
2021/01/06 01:22:10;;;;;;;8.67;4.80;;;2.40;99.90;;;;;;5072940;28;20198;-76
2021/01/06 01:24:37;;;;;;;6.97;4.77;;;2.30;99.90;;;;;;5072461;28;20205;-76
2021/01/06 01:27:04;;;;;;;6.87;4.27;;;2.40;99.90;;;;;;5071194;28;20205;-76
2021/01/06 01:29:31;;;;;;;5.67;4.73;;;2.40;99.90;;;;;;5071699;28;20212;-76
2021/01/06 01:31:59;;;;;;;7.20;5.27;;;2.40;99.90;;;;;;5071537;28;20205;-77
2021/01/06 01:34:27;;;;;;;5.93;4.23;;;2.30;99.90;;;;;;5073269;28;20255;-78
2021/01/06 01:36:53;;;;;;;7.17;4.90;;;2.40;99.90;;;;;;5073898;28;20201;-77
2021/01/06 01:39:20;;;;;;;6.00;4.77;;;2.40;99.90;;;;;;5067749;28;20249;-77
2021/01/06 01:41:46;;;;;;;7.63;4.93;;;2.40;99.90;;;;;;5070342;28;20233;-76
2021/01/06 01:44:14;;;;;;;6.63;4.33;;;2.50;99.90;;;;;;5072471;28;20280;-76
2021/01/06 01:47:09;;;;;;;9.40;4.83;;;2.40;99.90;;;;;;5069015;28;20236;-76
2021/01/06 01:49:45;;;;;;;5.10;4.17;;;2.40;99.90;;;;;;5071309;28;20637;-75
2021/01/06 01:52:21;;;;;;;6.03;4.57;;;2.40;99.90;;;;;;5072541;28;20254;-76
2021/01/06 01:54:49;;;;;;;6.07;4.37;;;2.40;99.90;;;;;;5072171;28;20258;-76
2021/01/06 01:57:20;;;;;;;5.60;4.40;;;2.40;99.90;;;;;;5071622;28;20206;-75
2021/01/06 01:59:53;;;;;;;5.87;4.33;;;2.30;99.90;;;;;;5072057;28;20276;-76
2021/01/06 02:02:30;;;;;;;7.00;4.30;;;2.30;99.90;;;;;;5073804;28;20553;-76
2021/01/06 02:04:59;;;;;;;6.07;4.37;;;2.30;99.90;;;;;;5068209;28;20305;-78
2021/01/06 02:07:32;;;;;;;6.47;4.70;;;2.30;99.90;;;;;;5072374;28;20202;-76
2021/01/06 02:10:02;;;;;;;6.50;4.97;;;2.30;99.90;;;;;;5070748;28;20200;-76
2021/01/06 02:12:36;;;;;;;7.97;4.93;;;2.30;99.90;;;;;;5072544;28;20237;-76
2021/01/06 02:15:11;;;;;;;7.20;5.03;;;2.30;99.90;;;;;;5066279;28;20236;-76
2021/01/06 02:17:39;;;;;;;9.20;5.37;;;2.30;99.90;;;;;;5068179;28;20224;-76
2021/01/06 02:20:13;;;;;;;7.50;5.17;;;2.30;99.90;;;;;;5071151;28;20288;-76
2021/01/06 02:22:40;;;;;;;7.60;5.90;;;2.30;99.90;;;;;;5067781;28;20556;-76
2021/01/06 02:25:08;;;;;;;9.53;6.07;;;2.30;99.90;;;;;;5067631;28;20225;-77
2021/01/06 02:27:34;;;;;;;9.93;6.40;;;2.30;99.90;;;;;;5069757;28;20213;-76
2021/01/06 02:30:01;;;;;;;11.40;6.50;;;2.30;99.90;;;;;;5071066;28;20296;-76
2021/01/06 02:32:27;;;;;;;8.60;6.23;;;2.30;99.90;;;;;;5072838;28;20944;-76
2021/01/06 02:34:54;;;;;;;8.90;6.80;;;2.30;99.90;;;;;;5070440;28;20208;-76
2021/01/06 02:37:20;;;;;;;9.17;6.17;;;2.30;99.90;;;;;;5072619;28;20209;-76
2021/01/06 02:39:49;;;;;;;9.43;6.87;;;2.40;99.90;;;;;;5073780;28;20233;-76
2021/01/06 02:42:16;;;;;;;7.13;5.73;;;2.50;99.90;;;;;;5068027;28;20205;-76
2021/01/06 02:44:45;;;;;;;9.87;6.40;;;2.40;99.90;;;;;;5072227;28;20623;-76
2021/01/06 02:47:12;;;;;;;12.43;6.53;;;2.50;99.90;;;;;;5069224;28;20217;-76
2021/01/06 02:49:39;;;;;;;8.70;7.03;;;2.50;99.90;;;;;;5070655;28;20206;-76
2021/01/06 02:52:13;;;;;;;13.53;7.63;;;2.50;99.90;;;;;;5071177;28;20237;-78
2021/01/06 02:54:44;;;;;;;10.20;7.53;;;2.50;99.90;;;;;;5068025;28;20284;-77
2021/01/06 02:57:14;;;;;;;11.80;7.83;;;2.50;99.90;;;;;;5069189;28;20354;-77
2021/01/06 02:59:43;;;;;;;12.47;7.73;;;2.50;99.90;;;;;;5068100;28;20217;-76
2021/01/06 03:02:11;;;;;;;12.17;7.93;;;2.50;99.90;;;;;;5070431;28;20213;-77
2021/01/06 03:04:42;;;;;;;11.03;7.23;;;2.50;99.90;;;;;;5067898;28;20244;-77
2021/01/06 03:07:11;;;;;;;11.17;7.33;;;2.50;99.90;;;;;;5070732;28;20224;-76
2021/01/06 03:09:39;;;;;;;11.10;7.57;;;2.60;99.90;;;;;;5072776;28;20197;-77
2021/01/06 03:12:08;;;;;;;10.70;7.93;;;2.50;99.90;;;;;;5074856;28;20260;-77
2021/01/06 03:14:38;;;;;;;11.77;7.53;;;2.60;99.90;;;;;;5068381;28;20666;-77
2021/01/06 03:17:06;;;;;;;11.80;7.10;;;2.60;99.90;;;;;;5073049;28;20217;-76
2021/01/06 03:19:36;;;;;;;11.77;7.93;;;2.60;99.90;;;;;;5076208;28;20221;-76
2021/01/06 03:22:06;;;;;;;10.70;6.93;;;2.60;99.90;;;;;;5076192;28;20197;-77
2021/01/06 03:24:40;;;;;;;8.90;6.33;;;2.60;99.90;;;;;;5073234;28;20284;-77
2021/01/06 03:27:07;;;;;;;9.17;7.17;;;2.70;99.90;;;;;;5073808;28;20577;-76
2021/01/06 03:29:37;;;;;;;9.50;7.27;;;2.70;99.90;;;;;;5075511;28;20624;-75
2021/01/06 03:32:21;;;;;;;10.43;7.07;;;2.80;99.90;;;;;;5074997;28;20292;-76
2021/01/06 03:34:54;;;;;;;11.13;7.47;;;2.80;99.90;;;;;;5071413;28;20193;-76
2021/01/06 03:37:27;;;;;;;11.57;7.53;;;2.80;99.90;;;;;;5072733;28;20569;-74
2021/01/06 03:39:59;;;;;;;12.53;7.33;;;2.90;99.90;;;;;;5075156;28;20526;-76
2021/01/06 03:42:27;;;;;;;9.77;7.00;;;2.90;99.90;;;;;;5072309;28;20201;-76
2021/01/06 03:44:55;;;;;;;12.80;8.00;;;2.90;99.90;;;;;;5069381;28;20343;-76
2021/01/06 03:47:26;;;;;;;10.27;7.63;;;2.90;99.90;;;;;;5074662;28;20201;-75
2021/01/06 03:50:01;;;;;;;11.20;7.77;;;2.90;99.90;;;;;;5073629;28;20225;-75
2021/01/06 03:52:47;;;;;;;11.20;7.43;;;2.90;99.90;;;;;;5074203;28;20200;-77
2021/01/06 03:55:23;;;;;;;10.90;7.47;;;2.80;99.90;;;;;;5072427;28;20208;-77
2021/01/06 03:57:52;;;;;;;11.97;8.00;;;2.90;99.90;;;;;;5074985;28;20228;-77
2021/01/06 04:00:39;;;;;;;11.90;8.23;;;2.90;99.90;;;;;;5073893;28;20697;-77
2021/01/06 04:03:18;;;;;;;12.33;8.23;;;2.90;99.90;;;;;;5075028;28;20204;-78
2021/01/06 04:05:46;;;;;;;12.97;9.00;;;2.90;99.90;;;;;;5073532;28;20220;-77
2021/01/06 04:08:19;;;;;;;12.47;8.77;;;2.90;99.90;;;;;;5070172;28;20198;-78
2021/01/06 04:10:52;;;;;;;14.47;8.87;;;2.90;99.90;;;;;;5074140;28;20288;-76
2021/01/06 04:13:18;;;;;;;11.53;8.10;;;2.90;99.90;;;;;;5074244;28;20304;-76
2021/01/06 04:15:46;;;;;;;13.97;9.53;;;2.90;99.90;;;;;;5071503;28;20540;-77
2021/01/06 04:18:12;;;;;;;13.60;9.13;;;2.90;99.90;;;;;;5071936;28;20652;-77
2021/01/06 04:20:40;;;;;;;13.40;8.93;;;2.90;99.90;;;;;;5071548;28;20597;-76
2021/01/06 04:23:09;;;;;;;13.13;8.87;;;2.90;99.90;;;;;;5074292;28;20681;-76
2021/01/06 04:25:38;;;;;;;15.27;9.03;;;2.90;99.90;;;;;;5072482;28;20215;-76
2021/01/06 04:28:08;;;;;;;14.67;9.40;;;2.90;99.90;;;;;;5074559;28;20688;-77
2021/01/06 04:30:38;;;;;;;14.20;9.37;;;3.00;99.90;;;;;;5073611;28;20238;-76
2021/01/06 04:33:08;;;;;;;15.13;9.40;;;3.00;99.90;;;;;;5075918;28;20235;-77
2021/01/06 04:35:35;;;;;;;15.60;10.57;;;3.00;99.90;;;;;;5072135;28;20205;-76
2021/01/06 04:38:01;;;;;;;12.53;8.57;;;3.00;99.90;;;;;;5066053;28;20308;-76
2021/01/06 04:40:34;;;;;;;14.43;9.03;;;3.00;99.90;;;;;;5073378;28;20267;-77
2021/01/06 04:43:09;;;;;;;14.80;9.13;;;3.00;99.90;;;;;;5071256;28;20258;-78
2021/01/06 04:45:40;;;;;;;14.33;9.47;;;3.10;99.90;;;;;;5071348;28;20224;-77
2021/01/06 04:48:27;;;;;;;15.93;9.90;;;3.10;99.90;;;;;;5073817;28;20205;-77
2021/01/06 04:51:27;;;;;;;16.03;9.17;;;3.10;99.90;;;;;;5064987;28;20632;-77
2021/01/06 04:54:29;;;;;;;15.20;9.70;;;3.10;99.90;;;;;;5071475;28;20210;-77
2021/01/06 04:57:20;;;;;;;15.67;10.50;;;3.10;99.90;;;;;;5069779;28;20203;-76
2021/01/06 05:00:23;;;;;;;17.30;10.17;;;3.10;99.90;;;;;;5073322;28;20213;-77
2021/01/06 05:03:25;;;;;;;15.43;9.53;;;3.10;99.90;;;;;;5034078;28;20342;-77
2021/01/06 05:06:14;;;;;;;16.50;10.27;;;3.10;99.90;;;;;;5074430;28;20253;-78
2021/01/06 05:08:46;;;;;;;16.40;10.53;;;3.10;99.90;;;;;;5073309;28;20224;-76
2021/01/06 05:11:20;;;;;;;16.93;9.87;;;3.10;99.90;;;;;;5074341;28;20316;-77
2021/01/06 05:13:51;;;;;;;19.33;10.93;;;3.10;99.90;;;;;;5071274;28;20233;-77
2021/01/06 05:16:22;;;;;;;15.53;10.20;;;3.10;99.90;;;;;;5066371;28;20283;-77
2021/01/06 05:18:49;;;;;;;19.83;11.17;;;3.10;99.90;;;;;;5073087;28;20249;-78
2021/01/06 05:21:18;;;;;;;21.93;10.60;;;3.10;99.90;;;;;;5070897;28;20262;-77
2021/01/06 05:23:48;;;;;;;19.73;11.37;;;3.10;99.90;;;;;;5072780;28;20642;-78
2021/01/06 05:26:14;;;;;;;19.47;11.80;;;3.00;99.90;;;;;;5070695;28;20212;-77
2021/01/06 05:28:42;;;;;;;22.60;11.83;;;3.10;99.90;;;;;;5073445;28;20233;-77
2021/01/06 05:31:09;;;;;;;25.47;12.73;;;3.00;99.90;;;;;;5071649;28;20304;-76
2021/01/06 05:33:40;;;;;;;22.17;12.40;;;3.00;99.90;;;;;;5071943;28;20212;-76
2021/01/06 05:36:14;;;;;;;17.93;12.00;;;3.00;99.90;;;;;;5072869;28;20193;-75
2021/01/06 05:38:40;;;;;;;24.73;12.77;;;3.00;99.90;;;;;;5070135;28;20650;-78
2021/01/06 05:41:06;;;;;;;21.90;12.27;;;3.00;99.90;;;;;;5069707;28;20624;-77
2021/01/06 05:43:41;;;;;;;21.73;12.63;;;2.90;99.90;;;;;;5073751;28;20201;-77
2021/01/06 05:46:16;;;;;;;19.57;11.97;;;3.10;99.90;;;;;;5071275;28;20208;-77
2021/01/06 05:48:48;;;;;;;21.57;12.10;;;3.00;99.90;;;;;;5070174;28;20232;-77
2021/01/06 05:51:23;;;;;;;20.43;12.03;;;3.00;99.90;;;;;;5070385;28;20253;-75
2021/01/06 05:53:57;;;;;;;22.50;12.53;;;3.00;99.90;;;;;;5071067;28;20209;-76
2021/01/06 05:56:46;;;;;;;19.30;12.03;;;3.00;99.90;;;;;;5071316;28;20196;-76
2021/01/06 05:59:24;;;;;;;20.43;11.97;;;3.00;99.90;;;;;;5070064;28;20213;-77
2021/01/06 06:01:58;;;;;;;21.10;12.20;;;3.00;99.90;;;;;;5064105;28;20224;-75
2021/01/06 06:04:38;;;;;;;20.73;11.83;;;3.00;99.90;;;;;;5073652;28;20616;-76
2021/01/06 06:07:28;;;;;;;21.57;12.17;;;3.00;99.90;;;;;;5072996;28;20703;-76
2021/01/06 06:10:28;;;;;;;20.90;12.47;;;3.00;99.90;;;;;;5065996;28;20284;-77
2021/01/06 06:13:09;;;;;;;20.43;12.13;;;3.00;99.90;;;;;;5064756;28;20402;-76
2021/01/06 06:16:36;;;;;;;22.90;12.43;;;3.00;99.90;;;;;;5065829;28;20566;-77
2021/01/06 06:19:18;;;;;;;18.60;11.23;;;3.10;99.90;;;;;;4963177;28;20223;-77
2021/01/06 06:21:52;;;;;;;18.30;11.57;;;3.00;99.90;;;;;;4993494;28;20363;-77
2021/01/06 06:24:31;;;;;;;18.63;11.33;;;3.10;99.90;;;;;;5032517;28;20213;-77
2021/01/06 06:27:06;;;;;;;18.43;10.87;;;3.10;99.90;;;;;;5066365;28;20201;-77
2021/01/06 06:29:39;;;;;;;18.33;11.67;;;3.10;99.90;;;;;;5071566;28;20283;-77
2021/01/06 06:32:07;;;;;;;19.70;10.97;;;3.10;99.90;;;;;;5069998;28;20205;-77
2021/01/06 06:34:38;;;;;;;23.63;9.23;;;3.10;99.90;;;;;;5072358;28;20229;-78
2021/01/06 06:37:09;;;;;;;14.73;9.47;;;3.10;99.90;;;;;;5070747;28;20287;-76
2021/01/06 06:39:39;;;;;;;17.53;10.93;;;3.10;99.90;;;;;;5072328;28;20271;-78
2021/01/06 06:42:17;;;;;;;18.20;10.50;;;3.10;99.90;;;;;;5067192;28;20217;-77
2021/01/06 06:44:59;;;;;;;16.17;10.50;;;3.10;99.90;;;;;;5068341;28;20227;-77
2021/01/06 06:47:44;;;;;;;17.80;10.27;;;3.10;99.90;;;;;;5075527;28;20729;-78
2021/01/06 06:50:39;;;;;;;16.07;9.67;;;3.10;99.90;;;;;;5076676;28;20292;-79
2021/01/06 06:53:16;;;;;;;17.43;9.87;;;3.10;99.90;;;;;;5077290;28;20296;-77
2021/01/06 06:55:50;;;;;;;13.40;9.57;;;3.10;99.90;;;;;;5072893;28;20201;-77
2021/01/06 06:58:37;;;;;;;17.23;10.07;;;3.10;99.90;;;;;;5077250;28;20229;-76
2021/01/06 07:01:08;;;;;;;16.27;10.30;;;3.10;99.90;;;;;;5071544;28;20228;-77
2021/01/06 07:03:37;;;;;;;15.77;9.87;;;3.10;99.90;;;;;;5073924;28;20220;-74
2021/01/06 07:06:09;;;;;;;16.90;9.67;;;3.20;99.90;;;;;;5069438;28;20201;-73
2021/01/06 07:08:39;;;;;;;15.83;9.70;;;3.20;99.90;;;;;;5071774;28;20201;-74
2021/01/06 07:11:20;;;;;;;17.13;11.23;;;3.10;99.90;;;;;;5076467;28;20348;-74
2021/01/06 07:13:53;;;;;;;15.93;9.53;;;3.10;99.90;;;;;;5075386;28;20312;-74
2021/01/06 07:16:32;;;;;;;16.23;10.43;;;3.10;99.90;;;;;;5071598;28;20205;-74
2021/01/06 07:19:15;;;;;;;16.20;10.13;;;3.10;99.90;;;;;;5073506;28;20228;-75
2021/01/06 07:21:41;;;;;;;15.87;10.63;;;3.10;99.90;;;;;;5065022;28;20205;-74
2021/01/06 07:24:16;;;;;;;17.47;10.00;;;3.10;99.90;;;;;;5067906;28;20229;-75
2021/01/06 07:26:47;;;;;;;17.93;10.70;;;3.10;99.90;;;;;;5073102;28;20240;-73
2021/01/06 07:29:16;;;;;;;17.97;10.73;;;3.10;99.90;;;;;;5073955;28;20236;-74
2021/01/06 07:31:52;;;;;;;16.53;10.47;;;3.10;99.90;;;;;;5074777;28;20209;-75
2021/01/06 07:34:22;;;;;;;18.23;10.63;;;3.10;99.90;;;;;;5066897;28;20241;-75
2021/01/06 07:36:52;;;;;;;17.37;10.50;;;3.10;99.90;;;;;;5065147;28;20210;-74
2021/01/06 07:39:23;;;;;;;16.50;10.87;;;3.10;99.90;;;;;;5063871;28;20221;-76
2021/01/06 07:41:52;;;;;;;16.93;10.63;;;3.10;99.90;;;;;;5073603;28;20292;-74
2021/01/06 07:44:24;;;;;;;17.37;10.97;;;3.10;99.90;;;;;;5071841;28;20297;-75
2021/01/06 07:47:04;;;;;;;18.73;11.40;;;3.10;99.90;;;;;;5062833;28;20197;-75
2021/01/06 07:49:43;;;;;;;16.50;10.60;;;3.10;99.90;;;;;;5075995;28;20209;-74
2021/01/06 07:52:38;;;;;;;16.37;10.83;;;3.10;99.90;;;;;;5069954;28;20297;-74
2021/01/06 07:55:18;;;;;;;15.87;10.27;;;3.10;99.90;;;;;;5072830;28;20280;-75
2021/01/06 07:57:49;;;;;;;18.97;10.87;;;3.10;99.90;;;;;;5074921;28;20209;-75
2021/01/06 08:00:25;;;;;;;17.13;11.60;;;3.20;99.90;;;;;;5075701;28;20213;-75
2021/01/06 08:03:01;;;;;;;19.37;10.73;;;3.20;99.90;;;;;;5075434;28;20209;-76
2021/01/06 08:05:30;;;;;;;19.87;12.07;;;3.20;99.90;;;;;;5075198;28;20535;-77
2021/01/06 08:08:07;;;;;;;22.17;11.77;;;3.20;99.90;;;;;;5072901;28;20655;-77
2021/01/06 08:10:35;;;;;;;20.07;11.63;;;3.20;99.90;;;;;;5076172;28;20215;-69
2021/01/06 08:13:20;;;;;;;19.57;11.00;;;3.20;99.90;;;;;;5075462;28;20539;-75
2021/01/06 08:15:49;;;;;;;17.60;11.43;;;3.20;99.90;;;;;;5075493;28;20333;-71
2021/01/06 08:18:28;;;;;;;20.40;11.27;;;3.30;99.90;;;;;;5071771;28;20241;-75
2021/01/06 08:21:08;;;;;;;18.00;10.53;;;3.30;99.90;;;;;;5076913;28;20196;-75
2021/01/06 08:24:10;;;;;;;16.53;10.20;;;3.30;99.90;;;;;;5076948;28;20197;-73
2021/01/06 08:26:46;;;;;;;20.90;11.30;;;3.30;99.90;;;;;;5071785;28;20235;-72
2021/01/06 08:29:17;;;;;;;23.33;12.03;;;3.30;99.90;;;;;;5074662;28;20197;-73
2021/01/06 08:31:45;;;;;;;17.63;10.93;;;3.30;99.90;;;;;;5074603;28;20212;-73
2021/01/06 08:34:21;;;;;;;19.03;11.80;;;3.30;99.90;;;;;;5075280;28;20205;-75
2021/01/06 08:36:54;;;;;;;19.43;11.00;;;3.30;99.90;;;;;;5074995;28;20197;-75
2021/01/06 08:39:23;;;;;;;20.77;11.87;;;3.40;99.90;;;;;;5073911;28;20228;-73
2021/01/06 08:41:50;;;;;;;18.53;11.67;;;3.40;99.90;;;;;;5071448;28;20210;-73
2021/01/06 08:44:34;;;;;;;17.57;11.47;;;3.40;99.90;;;;;;5075072;28;20296;-73
2021/01/06 08:47:02;;;;;;;18.77;11.20;;;3.40;99.90;;;;;;5074704;28;20670;-74
2021/01/06 08:49:32;;;;;;;18.40;11.47;;;3.40;99.90;;;;;;5075039;28;20511;-76
2021/01/06 08:52:21;;;;;;;22.83;12.07;;;3.40;99.90;;;;;;5075170;28;20620;-75
2021/01/06 08:54:58;;;;;;;18.70;11.13;;;3.40;99.90;;;;;;5072845;28;20201;-73
2021/01/06 08:57:28;;;;;;;17.20;10.93;;;3.50;99.90;;;;;;5073719;28;20204;-73
2021/01/06 08:59:55;;;;;;;18.90;11.07;;;3.50;99.90;;;;;;5072192;28;20227;-74
2021/01/06 09:02:32;;;;;;;20.87;12.00;;;3.50;99.90;;;;;;5074335;28;20229;-74
2021/01/06 09:04:58;;;;;;;19.37;11.60;;;3.50;99.90;;;;;;5073197;28;20208;-70
2021/01/06 09:07:27;;;;;;;18.30;11.60;;;3.50;99.90;;;;;;5073905;28;20209;-75
2021/01/06 09:10:00;;;;;;;18.60;11.77;;;3.50;99.90;;;;;;5073396;28;20209;-70
2021/01/06 09:12:36;;;;;;;17.10;11.23;;;3.50;99.90;;;;;;5073976;28;20236;-72
2021/01/06 09:15:07;;;;;;;18.00;10.87;;;3.50;99.90;;;;;;5071137;28;20260;-74
2021/01/06 09:17:41;;;;;;;20.17;11.03;;;3.50;99.90;;;;;;5074428;28;20654;-73
2021/01/06 09:20:13;;;;;;;19.10;11.13;;;3.50;99.90;;;;;;5071217;28;20241;-76
2021/01/06 09:22:40;;;;;;;18.40;11.30;;;3.50;99.90;;;;;;5077769;28;20646;-71
2021/01/06 09:25:07;;;;;;;17.80;11.67;;;3.50;99.90;;;;;;5073651;28;20282;-73
2021/01/06 09:27:38;;;;;;;18.00;10.70;;;3.50;99.90;;;;;;5065445;28;20210;-71
2021/01/06 09:30:20;;;;;;;20.13;11.37;;;3.50;99.90;;;;;;5073665;28;20665;-74
2021/01/06 09:32:48;;;;;;;20.93;11.63;;;3.50;99.90;;;;;;5069407;28;20615;-77
2021/01/06 09:35:18;;;;;;;21.37;11.97;;;3.60;99.90;;;;;;5059534;28;20208;-76
2021/01/06 09:37:54;;;;;;;20.40;11.00;;;3.60;99.90;;;;;;5073757;28;20209;-75
2021/01/06 09:40:21;;;;;;;19.50;11.30;;;3.60;99.90;;;;;;5073164;28;20279;-77
2021/01/06 09:42:56;;;;;;;20.37;11.47;;;3.70;99.90;;;;;;5069842;28;20332;-75
2021/01/06 09:45:26;;;;;;;18.47;11.70;;;3.60;99.90;;;;;;5070395;28;20220;-74
2021/01/06 09:47:57;;;;;;;20.43;12.03;;;3.70;99.90;;;;;;5071223;28;20227;-73
2021/01/06 09:50:28;;;;;;;16.47;10.67;;;3.70;99.90;;;;;;5072001;28;20219;-75
2021/01/06 09:52:57;;;;;;;20.47;11.57;;;3.70;99.90;;;;;;5067418;28;20235;-73
2021/01/06 09:55:26;;;;;;;18.03;11.23;;;3.60;99.90;;;;;;5068909;28;20213;-74
2021/01/06 09:58:01;;;;;;;22.43;12.20;;;3.70;99.90;;;;;;5069647;28;20243;-77
2021/01/06 10:00:40;;;;;;;18.17;11.43;;;3.70;99.90;;;;;;5073825;28;20213;-78
2021/01/06 10:03:07;;;;;;;18.47;11.33;;;3.70;99.90;;;;;;5072105;28;20579;-75
2021/01/06 10:05:51;;;;;;;17.97;11.10;;;3.70;99.90;;;;;;5067837;28;20201;-75
2021/01/06 10:08:40;;;;;;;17.73;11.47;;;3.70;99.90;;;;;;5067902;28;20213;-75
2021/01/06 10:11:13;;;;;;;17.73;11.10;;;3.70;99.90;;;;;;5069443;28;20268;-74
2021/01/06 10:14:07;;;;;;;21.23;12.37;;;3.70;99.90;;;;;;5068187;28;20322;-74
2021/01/06 10:16:41;;;;;;;16.73;10.80;;;3.80;99.90;;;;;;5061697;28;20198;-74
2021/01/06 10:19:16;;;;;;;19.70;11.87;;;3.80;99.90;;;;;;5071478;28;20224;-74
2021/01/06 10:21:53;;;;;;;22.37;11.57;;;3.80;99.90;;;;;;5073245;28;20196;-74
2021/01/06 10:24:38;;;;;;;17.80;11.10;;;3.90;99.90;;;;;;5068653;28;20201;-75
2021/01/06 10:27:19;;;;;;;17.37;11.10;;;3.90;99.90;;;;;;5072262;28;20221;-73
2021/01/06 10:29:49;;;;;;;17.93;11.43;;;4.00;99.90;;;;;;5072882;28;20284;-74
2021/01/06 10:32:49;;;;;;;17.13;10.40;;;4.00;99.90;;;;;;5074638;28;20612;-74
2021/01/06 10:35:38;;;;;;;17.53;10.23;;;4.00;99.90;;;;;;5069926;28;20587;-74
2021/01/06 10:38:29;;;;;;;15.60;10.50;;;4.00;99.90;;;;;;5074657;28;20925;-74
2021/01/06 10:41:12;;;;;;;17.77;11.00;;;4.00;99.90;;;;;;5060350;28;20288;-74
2021/01/06 10:43:44;;;;;;;17.33;10.83;;;4.10;99.90;;;;;;5076024;28;20239;-74
2021/01/06 10:46:41;;;;;;;16.73;10.67;;;4.10;99.90;;;;;;5070514;28;20373;-75
2021/01/06 10:49:13;;;;;;;17.17;10.60;;;4.10;99.90;;;;;;5072057;28;20811;-73
2021/01/06 10:52:19;;;;;;;15.07;9.60;;;4.00;99.90;;;;;;5075596;28;20250;-74
2021/01/06 10:54:54;;;;;;;14.57;9.73;;;4.10;99.90;;;;;;5075314;28;20334;-73
2021/01/06 10:57:27;;;;;;;12.60;9.43;;;4.10;99.90;;;;;;5075573;28;20626;-73
2021/01/06 11:00:17;;;;;;;15.83;10.10;;;4.00;99.90;;;;;;5075521;28;20715;-74
2021/01/06 11:02:57;;;;;;;17.77;10.43;;;4.00;99.90;;;;;;5074212;28;20638;-72
2021/01/06 11:05:27;;;;;;;15.97;9.77;;;4.00;99.90;;;;;;5073561;28;20628;-74
2021/01/06 11:08:35;;;;;;;17.83;10.17;;;4.00;99.90;;;;;;5070948;28;20228;-74
2021/01/06 11:11:36;;;;;;;14.03;9.73;;;4.10;99.90;;;;;;5072546;28;20292;-75
2021/01/06 11:14:42;;;;;;;13.37;9.27;;;4.10;99.90;;;;;;5074310;28;20224;-76
2021/01/06 11:17:27;;;;;;;14.57;8.60;;;4.10;99.90;;;;;;5028786;28;20210;-75
2021/01/06 11:19:56;;;;;;;13.93;8.67;;;4.10;99.90;;;;;;5067637;28;20227;-75
2021/01/06 11:22:33;;;;;;;14.23;9.27;;;4.10;99.90;;;;;;5075094;28;20646;-75
2021/01/06 11:25:03;;;;;;;14.40;9.23;;;4.10;99.90;;;;;;5073422;28;20562;-77
2021/01/06 11:27:44;;;;;;;13.23;8.50;;;4.10;99.90;;;;;;5073783;28;20208;-74
2021/01/06 11:30:26;;;;;;;13.63;8.77;;;4.10;99.90;;;;;;5075260;28;20210;-73
2021/01/06 11:33:19;;;;;;;14.67;9.10;;;4.10;99.90;;;;;;5065101;28;20205;-73
2021/01/06 11:35:49;;;;;;;13.67;9.40;;;4.10;99.90;;;;;;5073185;28;20205;-73
2021/01/06 11:38:51;;;;;;;14.73;9.47;;;4.10;99.90;;;;;;5075383;28;20227;-73
2021/01/06 11:41:46;;;;;;;12.20;8.13;;;4.10;99.90;;;;;;5070962;28;20205;-73
2021/01/06 11:44:21;;;;;;;13.87;8.40;;;4.10;99.90;;;;;;5076070;28;20678;-74
2021/01/06 11:47:03;;;;;;;13.17;8.23;;;4.20;99.90;;;;;;5076269;28;20197;-76
2021/01/06 11:49:47;;;;;;;12.17;7.93;;;4.20;99.90;;;;;;5076091;28;20366;-74
2021/01/06 11:52:28;;;;;;;9.80;6.67;;;4.20;99.90;;;;;;5076136;28;20205;-76
2021/01/06 11:54:59;;;;;;;11.03;7.77;;;4.10;99.90;;;;;;5065913;28;20285;-76
2021/01/06 11:57:41;;;;;;;12.27;7.73;;;4.10;99.90;;;;;;5075454;28;20633;-76
2021/01/06 12:00:47;;;;;;;12.47;7.27;;;4.10;99.90;;;;;;5072161;28;20233;-78
2021/01/06 12:03:27;;;;;;;10.23;7.37;;;4.00;99.90;;;;;;5075897;28;20194;-76
2021/01/06 12:06:04;;;;;;;13.13;8.27;;;4.00;99.90;;;;;;5066095;28;20205;-76
2021/01/06 12:08:47;;;;;;;11.27;7.00;;;4.00;99.90;;;;;;5076001;28;20197;-76
2021/01/06 12:11:25;;;;;;;11.20;7.40;;;4.10;99.90;;;;;;5076098;28;20229;-75
2021/01/06 12:14:05;;;;;;;10.60;6.97;;;4.10;99.90;;;;;;5073912;28;20255;-76
2021/01/06 12:16:39;;;;;;;11.70;6.53;;;4.10;99.90;;;;;;5077754;28;20212;-76
2021/01/06 12:19:34;;;;;;;9.20;5.90;;;4.10;99.90;;;;;;5085286;28;20277;-78
2021/01/06 12:22:16;;;;;;;8.57;5.80;;;4.10;99.90;;;;;;5074907;28;20916;-76
2021/01/06 12:24:47;;;;;;;9.10;6.10;;;4.20;99.90;;;;;;5068563;28;20233;-74
2021/01/06 12:27:45;;;;;;;8.00;5.13;;;4.20;99.90;;;;;;5072700;28;20205;-75
2021/01/06 12:30:50;;;;;;;7.30;5.00;;;4.20;99.90;;;;;;5075881;28;20820;-75
2021/01/06 12:33:31;;;;;;;9.40;5.50;;;4.10;99.90;;;;;;5073557;28;20204;-74
2021/01/06 12:36:15;;;;;;;7.47;5.07;;;4.10;99.90;;;;;;5075607;28;20212;-76
2021/01/06 12:38:42;;;;;;;7.80;5.87;;;4.10;99.90;;;;;;5075481;28;20229;-78
2021/01/06 12:41:16;;;;;;;9.73;5.50;;;4.10;99.90;;;;;;5075249;28;20246;-76
2021/01/06 12:43:47;;;;;;;7.70;5.33;;;4.10;99.90;;;;;;5076637;28;20762;-76
2021/01/06 12:46:32;;;;;;;8.90;5.67;;;4.00;99.90;;;;;;5075485;28;20213;-76
2021/01/06 12:49:22;;;;;;;13.90;7.30;;;4.00;99.90;;;;;;5075407;28;20288;-77
2021/01/06 12:52:13;;;;;;;9.07;5.77;;;4.00;99.90;;;;;;5072573;28;20205;-79
2021/01/06 12:54:45;;;;;;;12.53;6.77;;;4.00;99.90;;;;;;5069103;28;20228;-77
2021/01/06 12:57:19;;;;;;;10.60;7.00;;;4.10;99.90;;;;;;5065035;28;20228;-76
2021/01/06 12:59:52;;;;;;;9.63;6.33;;;4.10;99.90;;;;;;5071562;28;20231;-76
2021/01/06 13:02:33;;;;;;;12.13;6.10;;;4.40;99.90;;;;;;5076523;28;20205;-78
2021/01/06 13:05:18;;;;;;;9.40;6.73;;;4.10;99.90;;;;;;5076599;28;20224;-77
2021/01/06 13:07:49;;;;;;;10.43;6.67;;;4.10;99.90;;;;;;5075826;28;20292;-76
2021/01/06 13:10:35;;;;;;;9.70;6.83;;;4.10;99.90;;;;;;5074780;28;20193;-75
2021/01/06 13:13:26;;;;;;;10.57;6.93;;;4.10;99.90;;;;;;5073720;28;20403;-75
2021/01/06 13:16:00;;;;;;;9.97;7.30;;;4.10;99.90;;;;;;5073531;28;20231;-73
2021/01/06 13:18:44;;;;;;;10.03;6.70;;;4.10;99.90;;;;;;5077922;28;20249;-78
2021/01/06 13:21:31;;;;;;;11.40;7.73;;;4.10;99.90;;;;;;5073582;28;20201;-71
2021/01/06 13:24:09;;;;;;;10.63;7.20;;;4.10;99.90;;;;;;5062505;28;20202;-77
2021/01/06 13:26:41;;;;;;;9.83;7.30;;;4.10;99.90;;;;;;5071892;28;20201;-76